Puerto Limon, Costa Rica
Current Conditions -  °F | °C
As of 9:00 AM on Tuesday 21 Oct 2014 (Local Time) from MRPV Reporting Station
Moderate Fog Moderate Fog  
Wind Chill: 73°   Ceiling: Unl
Heat Index: 73°   Visibility: 5mi
Dew Point: 64°   Wind: 2mph
Humidity: 73%   Direction: NA
Pressure: 30.04"   Gusts: NA
Location:  9.99°N, 83.04°W
Report Text: MRPV 211500Z VRB02KT 8000 VCFG SCT020 SCT100 23/18 A3004 NOSIG
Loading
Personal Weather Stations






























Interactive Weather Map
Tropical Storm Tracking
New forecast layout! Learn more

10-Day Weather Forecast

Advertisements
Track Severe Weather on mobile